LTFM Airport Information

Runway Information
Airport Frequencies
Airport Navaids
Airport Weather Information & NOTAM
ADDS - METARS form results

(0133 UTC 22 July 2019)
Data provider http://aviationweather.gov/metar/data/
 
METAR text: LTFM 220120Z 04008KT 9999 FEW018 23/20 Q1018 NOSIG
Conditions at: LTFM (ISTANBUL HANALI , TR) observed 0120 UTC 22 July 2019
Temperature: 23.0°C (73°F)
Dewpoint: 20.0°C (68°F) [RH = 83%]
Pressure (altimeter): 30.06 inches Hg (1018.0 mb)
Winds: from the NE (40 degrees) at 9 MPH (8 knots; 4.1 m/s)
Visibility: 6 or more miles (10+ km)
Ceiling: at least 12,000 feet AGL
Clouds: few clouds at 1800 feet AGL
Weather: no significant weather observed at this time

METAR text: LTFM 220050Z 03007KT CAVOK 23/19 Q1018 NOSIG RMK RWY17L 04006KT RWY34L 03008KT RWY16R 02006KT
Conditions at: LTFM (ISTANBUL HANALI , TR) observed 0050 UTC 22 July 2019
Temperature: 23.0°C (73°F)
Dewpoint: 19.0°C (66°F) [RH = 78%]
Pressure (altimeter): 30.06 inches Hg (1018.0 mb)
Winds: from the NNE (30 degrees) at 8 MPH (7 knots; 3.6 m/s)
Visibility: 6 or more miles (10+ km)
Ceiling: ceiling and visibility are OK
Clouds: unknown
Weather: no significant weather observed at this time

Forecast for: LTFM (ISTANBUL HANALI , TR)
Text: TAF LTFM 212240Z 2200/2306 05010KT CAVOK
Forecast period: 0000 UTC 22 July 2019 to 0600 UTC 23 July 2019
Forecast type: FROM: standard forecast or significant change
Winds: from the NE (50 degrees) at 12 MPH (10 knots; 5.1 m/s)
Visibility: 6 or more miles 10+ km)
Ceiling: unknown
Clouds: missing
Weather: NSW  (no significant weather)
Text: BECMG 2200/2203 FEW028
Forecast period: 0000 to 1200 UTC 22 July 2019
Forecast type: BECOMING: Conditions expected to become as follows by 0300 UTC 22 July 2019
Winds: from the NE (50 degrees) at 12 MPH (10 knots; 5.1 m/s)
Visibility: 6 or more miles 10+ km)
Ceiling: at least 12,000 feet AGL
Clouds: few clouds at 2800 feet AGL
Weather: NSW  (no significant weather)
Text: BECMG 2212/2215 CAVOK
Forecast period: 1200 UTC 22 July 2019 to 0600 UTC 23 July 2019
Forecast type: BECOMING: Conditions expected to become as follows by 1500 UTC 22 July 2019
Winds: from the NE (50 degrees) at 12 MPH (10 knots; 5.1 m/s)
Visibility: 6 or more miles 10+ km)
Ceiling: unknown
Clouds: missing
Weather: NSW  (no significant weather)